sensor_id;sensor_type;location;lat;lon;timestamp;P1;durP1;ratioP1;P2;durP2;ratioP2
22268;SDS011;11303;50.772;19.670;2022-09-09T00:00:16;0.38;;;0.38;;
22268;SDS011;11303;50.772;19.670;2022-09-09T00:02:28;0.08;;;0.05;;
22268;SDS011;11303;50.772;19.670;2022-09-09T00:04:31;0.15;;;0.15;;
22268;SDS011;11303;50.772;19.670;2022-09-09T00:06:35;0.25;;;0.25;;
22268;SDS011;11303;50.772;19.670;2022-09-09T00:11:12;0.10;;;0.10;;
22268;SDS011;11303;50.772;19.670;2022-09-09T00:15:22;1.75;;;0.90;;
22268;SDS011;11303;50.772;19.670;2022-09-09T00:17:35;2.35;;;0.63;;
22268;SDS011;11303;50.772;19.670;2022-09-09T00:19:47;0.20;;;0.20;;
22268;SDS011;11303;50.772;19.670;2022-09-09T00:22:05;0.20;;;0.20;;
22268;SDS011;11303;50.772;19.670;2022-09-09T00:24:23;0.00;;;0.00;;
22268;SDS011;11303;50.772;19.670;2022-09-09T00:26:47;0.10;;;0.10;;
22268;SDS011;11303;50.772;19.670;2022-09-09T00:28:58;0.55;;;0.55;;
22268;SDS011;11303;50.772;19.670;2022-09-09T00:31:10;0.10;;;0.10;;
22268;SDS011;11303;50.772;19.670;2022-09-09T00:33:16;0.35;;;0.35;;
22268;SDS011;11303;50.772;19.670;2022-09-09T00:35:24;0.52;;;0.45;;
22268;SDS011;11303;50.772;19.670;2022-09-09T00:37:27;0.93;;;0.85;;
22268;SDS011;11303;50.772;19.670;2022-09-09T00:39:34;0.08;;;0.08;;
22268;SDS011;11303;50.772;19.670;2022-09-09T00:46:37;0.17;;;0.17;;
22268;SDS011;11303;50.772;19.670;2022-09-09T00:51:14;0.10;;;0.10;;
22268;SDS011;11303;50.772;19.670;2022-09-09T00:53:28;0.20;;;0.20;;
22268;SDS011;11303;50.772;19.670;2022-09-09T00:56:03;0.30;;;0.28;;
22268;SDS011;11303;50.772;19.670;2022-09-09T00:58:11;0.10;;;0.10;;
22268;SDS011;11303;50.772;19.670;2022-09-09T01:02:29;0.68;;;0.68;;
22268;SDS011;11303;50.772;19.670;2022-09-09T01:04:36;0.30;;;0.22;;
22268;SDS011;11303;50.772;19.670;2022-09-09T01:06:37;0.90;;;0.90;;
22268;SDS011;11303;50.772;19.670;2022-09-09T01:10:51;0.00;;;0.00;;
22268;SDS011;11303;50.772;19.670;2022-09-09T01:12:58;0.32;;;0.32;;
22268;SDS011;11303;50.772;19.670;2022-09-09T01:17:15;0.22;;;0.22;;
22268;SDS011;11303;50.772;19.670;2022-09-09T01:19:27;2.67;;;0.47;;
22268;SDS011;11303;50.772;19.670;2022-09-09T01:21:47;0.63;;;0.60;;
22268;SDS011;11303;50.772;19.670;2022-09-09T01:28:31;3.20;;;2.20;;
22268;SDS011;11303;50.772;19.670;2022-09-09T01:30:38;0.17;;;0.17;;
22268;SDS011;11303;50.772;19.670;2022-09-09T01:34:44;0.50;;;0.50;;
22268;SDS011;11303;50.772;19.670;2022-09-09T01:38:52;0.03;;;0.03;;
22268;SDS011;11303;50.772;19.670;2022-09-09T01:40:54;0.98;;;0.63;;
22268;SDS011;11303;50.772;19.670;2022-09-09T01:42:55;0.25;;;0.25;;
22268;SDS011;11303;50.772;19.670;2022-09-09T01:44:57;0.10;;;0.10;;
22268;SDS011;11303;50.772;19.670;2022-09-09T01:46:59;0.90;;;0.90;;
22268;SDS011;11303;50.772;19.670;2022-09-09T01:49:00;3.33;;;1.92;;
22268;SDS011;11303;50.772;19.670;2022-09-09T01:51:03;0.13;;;0.13;;
22268;SDS011;11303;50.772;19.670;2022-09-09T01:53:05;0.00;;;0.00;;
22268;SDS011;11303;50.772;19.670;2022-09-09T01:55:07;0.13;;;0.13;;
22268;SDS011;11303;50.772;19.670;2022-09-09T02:03:44;0.00;;;0.00;;
22268;SDS011;11303;50.772;19.670;2022-09-09T02:08:17;0.00;;;0.00;;
22268;SDS011;11303;50.772;19.670;2022-09-09T02:10:28;3.13;;;1.77;;
22268;SDS011;11303;50.772;19.670;2022-09-09T02:12:34;0.00;;;0.00;;
22268;SDS011;11303;50.772;19.670;2022-09-09T02:14:39;1.33;;;1.23;;
22268;SDS011;11303;50.772;19.670;2022-09-09T02:17:03;0.00;;;0.00;;
22268;SDS011;11303;50.772;19.670;2022-09-09T02:19:29;0.00;;;0.00;;
22268;SDS011;11303;50.772;19.670;2022-09-09T02:21:33;0.45;;;0.45;;
22268;SDS011;11303;50.772;19.670;2022-09-09T02:23:38;4.22;;;1.65;;
22268;SDS011;11303;50.772;19.670;2022-09-09T02:25:41;0.43;;;0.43;;
22268;SDS011;11303;50.772;19.670;2022-09-09T02:27:43;0.65;;;0.65;;
22268;SDS011;11303;50.772;19.670;2022-09-09T02:29:47;1.17;;;0.45;;
22268;SDS011;11303;50.772;19.670;2022-09-09T02:31:51;0.00;;;0.00;;
22268;SDS011;11303;50.772;19.670;2022-09-09T02:33:59;1.30;;;0.75;;
22268;SDS011;11303;50.772;19.670;2022-09-09T02:36:02;0.00;;;0.00;;
22268;SDS011;11303;50.772;19.670;2022-09-09T02:38:05;9.07;;;2.00;;
22268;SDS011;11303;50.772;19.670;2022-09-09T02:40:10;0.10;;;0.10;;
22268;SDS011;11303;50.772;19.670;2022-09-09T02:42:12;0.40;;;0.35;;
22268;SDS011;11303;50.772;19.670;2022-09-09T02:44:16;0.20;;;0.20;;
22268;SDS011;11303;50.772;19.670;2022-09-09T02:49:06;0.00;;;0.00;;
22268;SDS011;11303;50.772;19.670;2022-09-09T02:51:18;0.35;;;0.35;;
22268;SDS011;11303;50.772;19.670;2022-09-09T02:53:43;0.08;;;0.08;;
22268;SDS011;11303;50.772;19.670;2022-09-09T02:55:52;0.00;;;0.00;;
22268;SDS011;11303;50.772;19.670;2022-09-09T02:57:59;0.20;;;0.20;;
22268;SDS011;11303;50.772;19.670;2022-09-09T03:00:03;0.80;;;0.80;;
22268;SDS011;11303;50.772;19.670;2022-09-09T03:02:05;0.00;;;0.00;;
22268;SDS011;11303;50.772;19.670;2022-09-09T03:04:07;0.30;;;0.30;;
22268;SDS011;11303;50.772;19.670;2022-09-09T03:06:08;0.00;;;0.00;;
22268;SDS011;11303;50.772;19.670;2022-09-09T03:08:11;0.13;;;0.13;;
22268;SDS011;11303;50.772;19.670;2022-09-09T03:10:14;0.10;;;0.10;;
22268;SDS011;11303;50.772;19.670;2022-09-09T03:12:15;0.75;;;0.73;;
22268;SDS011;11303;50.772;19.670;2022-09-09T03:14:17;1.17;;;0.85;;
22268;SDS011;11303;50.772;19.670;2022-09-09T03:16:22;0.25;;;0.25;;
22268;SDS011;11303;50.772;19.670;2022-09-09T03:18:24;0.00;;;0.00;;
22268;SDS011;11303;50.772;19.670;2022-09-09T03:20:27;0.00;;;0.00;;
22268;SDS011;11303;50.772;19.670;2022-09-09T03:22:29;0.80;;;0.80;;
22268;SDS011;11303;50.772;19.670;2022-09-09T03:24:31;0.65;;;0.65;;
22268;SDS011;11303;50.772;19.670;2022-09-09T03:26:32;0.20;;;0.20;;
22268;SDS011;11303;50.772;19.670;2022-09-09T03:28:34;0.00;;;0.00;;
22268;SDS011;11303;50.772;19.670;2022-09-09T03:30:36;0.22;;;0.22;;
22268;SDS011;11303;50.772;19.670;2022-09-09T03:32:38;1.02;;;0.93;;
22268;SDS011;11303;50.772;19.670;2022-09-09T03:34:41;0.25;;;0.25;;
22268;SDS011;11303;50.772;19.670;2022-09-09T03:36:43;0.20;;;0.20;;
22268;SDS011;11303;50.772;19.670;2022-09-09T03:38:44;0.00;;;0.00;;
22268;SDS011;11303;50.772;19.670;2022-09-09T03:40:50;0.20;;;0.20;;
22268;SDS011;11303;50.772;19.670;2022-09-09T03:42:52;0.00;;;0.00;;
22268;SDS011;11303;50.772;19.670;2022-09-09T03:44:54;0.00;;;0.00;;
22268;SDS011;11303;50.772;19.670;2022-09-09T03:46:55;0.30;;;0.30;;
22268;SDS011;11303;50.772;19.670;2022-09-09T03:48:57;0.47;;;0.47;;
22268;SDS011;11303;50.772;19.670;2022-09-09T03:50:59;0.10;;;0.10;;
22268;SDS011;11303;50.772;19.670;2022-09-09T03:53:02;0.60;;;0.60;;
22268;SDS011;11303;50.772;19.670;2022-09-09T03:55:04;0.88;;;0.75;;
22268;SDS011;11303;50.772;19.670;2022-09-09T03:57:06;0.15;;;0.15;;
22268;SDS011;11303;50.772;19.670;2022-09-09T03:59:08;0.25;;;0.25;;
22268;SDS011;11303;50.772;19.670;2022-09-09T04:01:12;0.90;;;0.85;;
22268;SDS011;11303;50.772;19.670;2022-09-09T04:03:15;0.47;;;0.32;;
22268;SDS011;11303;50.772;19.670;2022-09-09T04:05:16;0.00;;;0.00;;
22268;SDS011;11303;50.772;19.670;2022-09-09T04:07:18;0.20;;;0.20;;
22268;SDS011;11303;50.772;19.670;2022-09-09T04:09:19;1.05;;;0.93;;
22268;SDS011;11303;50.772;19.670;2022-09-09T04:11:21;0.00;;;0.00;;
22268;SDS011;11303;50.772;19.670;2022-09-09T04:13:23;0.60;;;0.32;;
22268;SDS011;11303;50.772;19.670;2022-09-09T04:15:25;0.47;;;0.20;;
22268;SDS011;11303;50.772;19.670;2022-09-09T04:17:27;0.77;;;0.68;;
22268;SDS011;11303;50.772;19.670;2022-09-09T04:19:29;0.75;;;0.75;;
22268;SDS011;11303;50.772;19.670;2022-09-09T04:21:30;0.50;;;0.50;;
22268;SDS011;11303;50.772;19.670;2022-09-09T04:23:32;0.17;;;0.17;;
22268;SDS011;11303;50.772;19.670;2022-09-09T04:25:34;0.32;;;0.32;;
22268;SDS011;11303;50.772;19.670;2022-09-09T04:27:36;0.73;;;0.73;;
22268;SDS011;11303;50.772;19.670;2022-09-09T04:29:38;0.05;;;0.05;;
22268;SDS011;11303;50.772;19.670;2022-09-09T04:31:39;0.20;;;0.20;;
22268;SDS011;11303;50.772;19.670;2022-09-09T04:33:43;0.05;;;0.05;;
22268;SDS011;11303;50.772;19.670;2022-09-09T04:35:46;0.40;;;0.32;;
22268;SDS011;11303;50.772;19.670;2022-09-09T04:37:48;2.20;;;0.65;;
22268;SDS011;11303;50.772;19.670;2022-09-09T04:39:50;0.10;;;0.10;;
22268;SDS011;11303;50.772;19.670;2022-09-09T04:41:52;0.03;;;0.03;;
22268;SDS011;11303;50.772;19.670;2022-09-09T04:43:54;0.22;;;0.22;;
22268;SDS011;11303;50.772;19.670;2022-09-09T04:45:55;0.28;;;0.28;;
22268;SDS011;11303;50.772;19.670;2022-09-09T04:47:57;1.88;;;0.75;;
22268;SDS011;11303;50.772;19.670;2022-09-09T04:49:59;0.43;;;0.32;;
22268;SDS011;11303;50.772;19.670;2022-09-09T04:52:02;0.35;;;0.35;;
22268;SDS011;11303;50.772;19.670;2022-09-09T04:54:04;0.60;;;0.52;;
22268;SDS011;11303;50.772;19.670;2022-09-09T04:56:11;0.00;;;0.00;;
22268;SDS011;11303;50.772;19.670;2022-09-09T04:58:13;1.17;;;1.05;;
22268;SDS011;11303;50.772;19.670;2022-09-09T05:00:15;0.43;;;0.43;;
22268;SDS011;11303;50.772;19.670;2022-09-09T05:02:18;0.80;;;0.80;;
22268;SDS011;11303;50.772;19.670;2022-09-09T05:04:21;0.00;;;0.00;;
22268;SDS011;11303;50.772;19.670;2022-09-09T05:06:22;0.65;;;0.35;;
22268;SDS011;11303;50.772;19.670;2022-09-09T05:08:24;0.35;;;0.35;;
22268;SDS011;11303;50.772;19.670;2022-09-09T05:10:26;0.10;;;0.10;;
22268;SDS011;11303;50.772;19.670;2022-09-09T05:12:27;0.77;;;0.73;;
22268;SDS011;11303;50.772;19.670;2022-09-09T05:14:29;0.10;;;0.10;;
22268;SDS011;11303;50.772;19.670;2022-09-09T05:16:31;1.27;;;1.17;;
22268;SDS011;11303;50.772;19.670;2022-09-09T05:18:33;0.30;;;0.30;;
22268;SDS011;11303;50.772;19.670;2022-09-09T05:20:34;12.05;;;1.60;;
22268;SDS011;11303;50.772;19.670;2022-09-09T05:22:36;1.55;;;1.45;;
22268;SDS011;11303;50.772;19.670;2022-09-09T05:24:37;0.32;;;0.32;;
22268;SDS011;11303;50.772;19.670;2022-09-09T05:26:39;1.33;;;0.82;;
22268;SDS011;11303;50.772;19.670;2022-09-09T05:28:41;5.38;;;2.75;;
22268;SDS011;11303;50.772;19.670;2022-09-09T05:30:42;2.00;;;1.27;;
22268;SDS011;11303;50.772;19.670;2022-09-09T05:32:44;0.60;;;0.60;;
22268;SDS011;11303;50.772;19.670;2022-09-09T05:34:46;1.35;;;1.25;;
22268;SDS011;11303;50.772;19.670;2022-09-09T05:36:47;0.60;;;0.60;;
22268;SDS011;11303;50.772;19.670;2022-09-09T05:38:49;0.40;;;0.40;;
22268;SDS011;11303;50.772;19.670;2022-09-09T05:40:51;0.40;;;0.40;;
22268;SDS011;11303;50.772;19.670;2022-09-09T05:42:53;7.35;;;0.60;;
22268;SDS011;11303;50.772;19.670;2022-09-09T05:44:55;3.30;;;0.95;;
22268;SDS011;11303;50.772;19.670;2022-09-09T05:46:56;0.30;;;0.30;;
22268;SDS011;11303;50.772;19.670;2022-09-09T05:48:59;1.00;;;0.60;;
22268;SDS011;11303;50.772;19.670;2022-09-09T05:51:01;0.40;;;0.40;;
22268;SDS011;11303;50.772;19.670;2022-09-09T05:53:03;0.75;;;0.75;;
22268;SDS011;11303;50.772;19.670;2022-09-09T05:55:05;0.50;;;0.50;;
22268;SDS011;11303;50.772;19.670;2022-09-09T05:57:08;2.22;;;0.90;;
22268;SDS011;11303;50.772;19.670;2022-09-09T05:59:09;0.47;;;0.17;;
22268;SDS011;11303;50.772;19.670;2022-09-09T06:01:12;0.75;;;0.75;;
22268;SDS011;11303;50.772;19.670;2022-09-09T06:03:15;0.45;;;0.45;;
22268;SDS011;11303;50.772;19.670;2022-09-09T06:05:18;4.88;;;1.00;;
22268;SDS011;11303;50.772;19.670;2022-09-09T06:07:20;1.50;;;0.63;;
22268;SDS011;11303;50.772;19.670;2022-09-09T06:09:21;0.43;;;0.43;;
22268;SDS011;11303;50.772;19.670;2022-09-09T06:11:28;3.60;;;1.65;;
22268;SDS011;11303;50.772;19.670;2022-09-09T06:13:32;0.47;;;0.43;;
22268;SDS011;11303;50.772;19.670;2022-09-09T06:15:34;0.30;;;0.30;;
22268;SDS011;11303;50.772;19.670;2022-09-09T06:17:36;0.68;;;0.68;;
22268;SDS011;11303;50.772;19.670;2022-09-09T06:19:38;0.60;;;0.45;;
22268;SDS011;11303;50.772;19.670;2022-09-09T06:21:39;0.82;;;0.63;;
22268;SDS011;11303;50.772;19.670;2022-09-09T06:23:42;1.95;;;0.90;;
22268;SDS011;11303;50.772;19.670;2022-09-09T06:25:43;3.13;;;0.98;;
22268;SDS011;11303;50.772;19.670;2022-09-09T06:27:48;0.45;;;0.45;;
22268;SDS011;11303;50.772;19.670;2022-09-09T06:29:50;0.75;;;0.52;;
22268;SDS011;11303;50.772;19.670;2022-09-09T06:31:52;0.10;;;0.10;;
22268;SDS011;11303;50.772;19.670;2022-09-09T06:33:53;1.65;;;0.85;;
22268;SDS011;11303;50.772;19.670;2022-09-09T06:35:56;0.00;;;0.00;;
22268;SDS011;11303;50.772;19.670;2022-09-09T06:37:58;0.13;;;0.13;;
22268;SDS011;11303;50.772;19.670;2022-09-09T06:39:59;0.20;;;0.17;;
22268;SDS011;11303;50.772;19.670;2022-09-09T06:42:01;2.17;;;0.98;;
22268;SDS011;11303;50.772;19.670;2022-09-09T06:44:03;0.32;;;0.30;;
22268;SDS011;11303;50.772;19.670;2022-09-09T06:46:06;0.20;;;0.15;;
22268;SDS011;11303;50.772;19.670;2022-09-09T06:48:10;1.58;;;1.48;;
22268;SDS011;11303;50.772;19.670;2022-09-09T06:50:12;0.70;;;0.50;;
22268;SDS011;11303;50.772;19.670;2022-09-09T06:52:14;0.00;;;0.00;;
22268;SDS011;11303;50.772;19.670;2022-09-09T06:54:15;0.20;;;0.20;;
22268;SDS011;11303;50.772;19.670;2022-09-09T06:56:18;0.30;;;0.30;;
22268;SDS011;11303;50.772;19.670;2022-09-09T06:58:22;1.85;;;0.68;;
22268;SDS011;11303;50.772;19.670;2022-09-09T07:00:24;0.13;;;0.13;;
22268;SDS011;11303;50.772;19.670;2022-09-09T07:02:26;0.28;;;0.13;;
22268;SDS011;11303;50.772;19.670;2022-09-09T07:04:27;0.00;;;0.00;;
22268;SDS011;11303;50.772;19.670;2022-09-09T07:06:30;0.00;;;0.00;;
22268;SDS011;11303;50.772;19.670;2022-09-09T07:08:32;0.40;;;0.35;;
22268;SDS011;11303;50.772;19.670;2022-09-09T07:10:34;0.00;;;0.00;;
22268;SDS011;11303;50.772;19.670;2022-09-09T07:12:36;0.98;;;0.93;;
22268;SDS011;11303;50.772;19.670;2022-09-09T07:14:38;5.30;;;4.00;;
22268;SDS011;11303;50.772;19.670;2022-09-09T07:16:41;4.40;;;3.80;;
22268;SDS011;11303;50.772;19.670;2022-09-09T07:18:43;4.43;;;4.03;;
22268;SDS011;11303;50.772;19.670;2022-09-09T07:20:54;7.93;;;5.15;;
22268;SDS011;11303;50.772;19.670;2022-09-09T07:22:57;6.82;;;4.80;;
22268;SDS011;11303;50.772;19.670;2022-09-09T07:24:59;5.40;;;3.28;;
22268;SDS011;11303;50.772;19.670;2022-09-09T07:27:01;5.28;;;3.60;;
22268;SDS011;11303;50.772;19.670;2022-09-09T07:29:04;3.80;;;3.40;;
22268;SDS011;11303;50.772;19.670;2022-09-09T07:31:06;4.45;;;3.10;;
22268;SDS011;11303;50.772;19.670;2022-09-09T07:33:08;4.30;;;3.40;;
22268;SDS011;11303;50.772;19.670;2022-09-09T07:35:13;7.65;;;4.32;;
22268;SDS011;11303;50.772;19.670;2022-09-09T07:37:15;8.90;;;3.67;;
22268;SDS011;11303;50.772;19.670;2022-09-09T07:39:17;7.65;;;4.30;;
22268;SDS011;11303;50.772;19.670;2022-09-09T07:41:20;4.35;;;2.67;;
22268;SDS011;11303;50.772;19.670;2022-09-09T07:43:25;7.25;;;3.67;;
22268;SDS011;11303;50.772;19.670;2022-09-09T07:45:27;3.95;;;2.72;;
22268;SDS011;11303;50.772;19.670;2022-09-09T07:47:33;6.95;;;3.55;;
22268;SDS011;11303;50.772;19.670;2022-09-09T07:49:35;3.65;;;2.10;;
22268;SDS011;11303;50.772;19.670;2022-09-09T07:51:38;2.20;;;1.92;;
22268;SDS011;11303;50.772;19.670;2022-09-09T07:53:40;2.25;;;1.92;;
22268;SDS011;11303;50.772;19.670;2022-09-09T07:55:42;4.47;;;1.80;;
22268;SDS011;11303;50.772;19.670;2022-09-09T07:57:44;4.10;;;2.20;;
22268;SDS011;11303;50.772;19.670;2022-09-09T07:59:45;4.00;;;1.67;;
22268;SDS011;11303;50.772;19.670;2022-09-09T08:01:48;2.17;;;1.80;;
22268;SDS011;11303;50.772;19.670;2022-09-09T08:03:59;4.13;;;1.88;;
22268;SDS011;11303;50.772;19.670;2022-09-09T08:06:03;2.63;;;2.10;;
22268;SDS011;11303;50.772;19.670;2022-09-09T08:08:05;3.08;;;2.30;;
22268;SDS011;11303;50.772;19.670;2022-09-09T08:10:07;2.78;;;2.10;;
22268;SDS011;11303;50.772;19.670;2022-09-09T08:12:09;1.90;;;1.70;;
22268;SDS011;11303;50.772;19.670;2022-09-09T08:14:11;2.60;;;2.20;;
22268;SDS011;11303;50.772;19.670;2022-09-09T08:16:14;8.38;;;2.35;;
22268;SDS011;11303;50.772;19.670;2022-09-09T08:18:18;3.67;;;2.15;;
22268;SDS011;11303;50.772;19.670;2022-09-09T08:20:19;2.33;;;1.90;;
22268;SDS011;11303;50.772;19.670;2022-09-09T08:22:21;1.60;;;1.50;;
22268;SDS011;11303;50.772;19.670;2022-09-09T08:24:23;4.65;;;1.52;;
22268;SDS011;11303;50.772;19.670;2022-09-09T08:26:32;1.98;;;1.80;;
22268;SDS011;11303;50.772;19.670;2022-09-09T08:28:35;2.53;;;1.77;;
22268;SDS011;11303;50.772;19.670;2022-09-09T08:30:37;1.63;;;1.38;;
22268;SDS011;11303;50.772;19.670;2022-09-09T08:32:39;2.85;;;1.60;;
22268;SDS011;11303;50.772;19.670;2022-09-09T08:34:45;2.40;;;1.42;;
22268;SDS011;11303;50.772;19.670;2022-09-09T08:36:47;2.15;;;1.50;;
22268;SDS011;11303;50.772;19.670;2022-09-09T08:38:50;3.00;;;1.27;;
22268;SDS011;11303;50.772;19.670;2022-09-09T08:40:58;2.20;;;1.30;;
22268;SDS011;11303;50.772;19.670;2022-09-09T08:43:08;1.65;;;1.10;;
22268;SDS011;11303;50.772;19.670;2022-09-09T08:45:19;1.23;;;1.13;;
22268;SDS011;11303;50.772;19.670;2022-09-09T08:52:03;3.35;;;1.58;;
22268;SDS011;11303;50.772;19.670;2022-09-09T08:54:12;2.53;;;1.85;;
22268;SDS011;11303;50.772;19.670;2022-09-09T08:56:18;2.92;;;1.50;;
22268;SDS011;11303;50.772;19.670;2022-09-09T08:58:33;2.17;;;1.60;;
22268;SDS011;11303;50.772;19.670;2022-09-09T09:00:40;3.35;;;1.48;;
22268;SDS011;11303;50.772;19.670;2022-09-09T09:11:53;3.30;;;2.00;;
22268;SDS011;11303;50.772;19.670;2022-09-09T09:14:12;6.20;;;1.90;;
22268;SDS011;11303;50.772;19.670;2022-09-09T09:16:23;3.00;;;2.00;;
22268;SDS011;11303;50.772;19.670;2022-09-09T09:18:30;2.97;;;1.73;;
22268;SDS011;11303;50.772;19.670;2022-09-09T09:20:36;2.50;;;1.88;;
22268;SDS011;11303;50.772;19.670;2022-09-09T09:22:52;2.95;;;1.75;;
22268;SDS011;11303;50.772;19.670;2022-09-09T09:27:36;3.08;;;2.00;;
22268;SDS011;11303;50.772;19.670;2022-09-09T09:29:42;1.90;;;1.65;;
22268;SDS011;11303;50.772;19.670;2022-09-09T09:32:05;4.80;;;2.03;;
22268;SDS011;11303;50.772;19.670;2022-09-09T09:34:08;6.57;;;2.05;;
22268;SDS011;11303;50.772;19.670;2022-09-09T09:36:13;3.17;;;1.90;;
22268;SDS011;11303;50.772;19.670;2022-09-09T09:38:17;3.33;;;2.03;;
22268;SDS011;11303;50.772;19.670;2022-09-09T09:40:54;3.20;;;2.22;;
22268;SDS011;11303;50.772;19.670;2022-09-09T09:43:02;4.38;;;2.53;;
22268;SDS011;11303;50.772;19.670;2022-09-09T09:48:02;7.25;;;3.08;;
22268;SDS011;11303;50.772;19.670;2022-09-09T09:50:17;6.28;;;4.05;;
22268;SDS011;11303;50.772;19.670;2022-09-09T09:52:22;4.40;;;3.28;;
22268;SDS011;11303;50.772;19.670;2022-09-09T09:54:28;4.50;;;2.15;;
22268;SDS011;11303;50.772;19.670;2022-09-09T09:56:31;2.75;;;1.88;;
22268;SDS011;11303;50.772;19.670;2022-09-09T09:58:38;3.20;;;2.22;;
22268;SDS011;11303;50.772;19.670;2022-09-09T10:00:51;4.05;;;1.80;;
22268;SDS011;11303;50.772;19.670;2022-09-09T10:02:54;5.38;;;2.08;;
22268;SDS011;11303;50.772;19.670;2022-09-09T10:05:01;4.22;;;2.03;;
22268;SDS011;11303;50.772;19.670;2022-09-09T10:07:09;3.15;;;1.70;;
22268;SDS011;11303;50.772;19.670;2022-09-09T10:09:25;3.42;;;1.83;;
22268;SDS011;11303;50.772;19.670;2022-09-09T10:11:32;4.88;;;2.00;;
22268;SDS011;11303;50.772;19.670;2022-09-09T10:13:53;4.10;;;2.30;;
22268;SDS011;11303;50.772;19.670;2022-09-09T10:16:06;3.90;;;1.80;;
22268;SDS011;11303;50.772;19.670;2022-09-09T10:20:40;3.53;;;1.80;;
22268;SDS011;11303;50.772;19.670;2022-09-09T10:22:50;5.03;;;1.70;;
22268;SDS011;11303;50.772;19.670;2022-09-09T10:32:02;2.58;;;1.50;;
22268;SDS011;11303;50.772;19.670;2022-09-09T10:34:11;2.47;;;1.48;;
22268;SDS011;11303;50.772;19.670;2022-09-09T10:36:31;3.53;;;1.70;;
22268;SDS011;11303;50.772;19.670;2022-09-09T10:38:39;3.00;;;2.00;;
22268;SDS011;11303;50.772;19.670;2022-09-09T10:43:09;3.53;;;1.67;;
22268;SDS011;11303;50.772;19.670;2022-09-09T10:50:11;1.77;;;1.38;;
22268;SDS011;11303;50.772;19.670;2022-09-09T10:59:39;1.70;;;1.40;;
22268;SDS011;11303;50.772;19.670;2022-09-09T11:01:43;1.95;;;1.50;;
22268;SDS011;11303;50.772;19.670;2022-09-09T11:03:57;4.75;;;1.67;;
22268;SDS011;11303;50.772;19.670;2022-09-09T11:06:06;2.08;;;1.30;;
22268;SDS011;11303;50.772;19.670;2022-09-09T11:08:16;1.92;;;1.40;;
22268;SDS011;11303;50.772;19.670;2022-09-09T11:12:35;1.55;;;1.20;;
22268;SDS011;11303;50.772;19.670;2022-09-09T11:14:42;2.42;;;1.27;;
22268;SDS011;11303;50.772;19.670;2022-09-09T11:16:50;2.22;;;1.35;;
22268;SDS011;11303;50.772;19.670;2022-09-09T11:18:55;1.95;;;1.10;;
22268;SDS011;11303;50.772;19.670;2022-09-09T11:21:00;2.17;;;1.13;;
22268;SDS011;11303;50.772;19.670;2022-09-09T11:23:17;2.58;;;1.52;;
22268;SDS011;11303;50.772;19.670;2022-09-09T11:25:40;1.75;;;1.15;;
22268;SDS011;11303;50.772;19.670;2022-09-09T11:30:22;1.23;;;1.00;;
22268;SDS011;11303;50.772;19.670;2022-09-09T11:37:53;1.10;;;1.00;;
22268;SDS011;11303;50.772;19.670;2022-09-09T11:39:44;2.45;;;1.13;;
22268;SDS011;11303;50.772;19.670;2022-09-09T11:41:49;2.33;;;1.30;;
22268;SDS011;11303;50.772;19.670;2022-09-09T11:43:51;2.95;;;1.20;;
22268;SDS011;11303;50.772;19.670;2022-09-09T11:45:54;1.30;;;1.17;;
22268;SDS011;11303;50.772;19.670;2022-09-09T11:48:02;2.80;;;1.63;;
22268;SDS011;11303;50.772;19.670;2022-09-09T11:50:08;1.30;;;1.20;;
22268;SDS011;11303;50.772;19.670;2022-09-09T11:52:18;2.90;;;1.38;;
22268;SDS011;11303;50.772;19.670;2022-09-09T11:54:30;2.58;;;1.05;;
22268;SDS011;11303;50.772;19.670;2022-09-09T11:56:43;2.67;;;1.27;;
22268;SDS011;11303;50.772;19.670;2022-09-09T11:58:56;1.60;;;1.17;;
22268;SDS011;11303;50.772;19.670;2022-09-09T12:00:59;1.75;;;1.30;;
22268;SDS011;11303;50.772;19.670;2022-09-09T12:03:01;2.50;;;1.20;;
22268;SDS011;11303;50.772;19.670;2022-09-09T12:05:08;1.60;;;1.23;;
22268;SDS011;11303;50.772;19.670;2022-09-09T12:09:48;2.00;;;1.08;;
22268;SDS011;11303;50.772;19.670;2022-09-09T12:12:17;1.90;;;1.17;;
22268;SDS011;11303;50.772;19.670;2022-09-09T12:14:35;2.70;;;1.10;;
22268;SDS011;11303;50.772;19.670;2022-09-09T12:16:45;3.58;;;1.38;;
22268;SDS011;11303;50.772;19.670;2022-09-09T12:18:46;3.40;;;1.30;;
22268;SDS011;11303;50.772;19.670;2022-09-09T12:21:35;2.38;;;1.42;;
22268;SDS011;11303;50.772;19.670;2022-09-09T12:23:40;2.22;;;1.35;;
22268;SDS011;11303;50.772;19.670;2022-09-09T12:30:22;4.00;;;1.40;;
22268;SDS011;11303;50.772;19.670;2022-09-09T12:32:27;2.30;;;1.30;;
22268;SDS011;11303;50.772;19.670;2022-09-09T12:36:34;4.13;;;1.30;;
22268;SDS011;11303;50.772;19.670;2022-09-09T12:38:37;2.63;;;1.52;;
22268;SDS011;11303;50.772;19.670;2022-09-09T12:40:40;1.70;;;1.15;;
22268;SDS011;11303;50.772;19.670;2022-09-09T12:42:42;3.25;;;1.75;;
22268;SDS011;11303;50.772;19.670;2022-09-09T12:44:54;2.53;;;1.30;;
22268;SDS011;11303;50.772;19.670;2022-09-09T12:46:58;3.38;;;1.48;;
22268;SDS011;11303;50.772;19.670;2022-09-09T12:49:02;3.45;;;1.95;;
22268;SDS011;11303;50.772;19.670;2022-09-09T12:51:05;1.70;;;1.60;;
22268;SDS011;11303;50.772;19.670;2022-09-09T12:53:10;5.45;;;3.05;;
22268;SDS011;11303;50.772;19.670;2022-09-09T12:55:20;3.35;;;2.15;;
22268;SDS011;11303;50.772;19.670;2022-09-09T12:57:23;2.28;;;1.80;;
22268;SDS011;11303;50.772;19.670;2022-09-09T12:59:35;3.20;;;1.85;;
22268;SDS011;11303;50.772;19.670;2022-09-09T13:01:38;6.72;;;3.50;;
22268;SDS011;11303;50.772;19.670;2022-09-09T13:03:43;6.80;;;4.75;;
22268;SDS011;11303;50.772;19.670;2022-09-09T13:05:46;4.13;;;2.20;;
22268;SDS011;11303;50.772;19.670;2022-09-09T13:07:48;5.35;;;1.90;;
22268;SDS011;11303;50.772;19.670;2022-09-09T13:09:50;2.22;;;1.40;;
22268;SDS011;11303;50.772;19.670;2022-09-09T13:11:53;2.17;;;1.65;;
22268;SDS011;11303;50.772;19.670;2022-09-09T13:13:58;4.35;;;2.00;;
22268;SDS011;11303;50.772;19.670;2022-09-09T13:16:00;3.17;;;1.50;;
22268;SDS011;11303;50.772;19.670;2022-09-09T13:18:04;1.70;;;1.38;;
22268;SDS011;11303;50.772;19.670;2022-09-09T13:20:19;1.73;;;1.50;;
22268;SDS011;11303;50.772;19.670;2022-09-09T13:22:29;4.55;;;1.75;;
22268;SDS011;11303;50.772;19.670;2022-09-09T13:24:33;1.58;;;1.10;;
22268;SDS011;11303;50.772;19.670;2022-09-09T13:26:36;2.45;;;1.50;;
22268;SDS011;11303;50.772;19.670;2022-09-09T13:28:38;5.53;;;1.40;;
22268;SDS011;11303;50.772;19.670;2022-09-09T13:30:40;3.20;;;1.50;;
22268;SDS011;11303;50.772;19.670;2022-09-09T13:32:44;2.10;;;1.40;;
22268;SDS011;11303;50.772;19.670;2022-09-09T13:34:55;3.60;;;1.73;;
22268;SDS011;11303;50.772;19.670;2022-09-09T13:37:02;4.10;;;2.45;;
22268;SDS011;11303;50.772;19.670;2022-09-09T13:39:15;5.03;;;1.90;;
22268;SDS011;11303;50.772;19.670;2022-09-09T13:41:19;2.30;;;1.40;;
22268;SDS011;11303;50.772;19.670;2022-09-09T13:43:23;1.40;;;1.25;;
22268;SDS011;11303;50.772;19.670;2022-09-09T13:45:25;1.63;;;1.40;;
22268;SDS011;11303;50.772;19.670;2022-09-09T13:47:34;3.58;;;1.50;;
22268;SDS011;11303;50.772;19.670;2022-09-09T13:49:36;3.83;;;2.17;;
22268;SDS011;11303;50.772;19.670;2022-09-09T13:51:39;2.63;;;1.55;;
22268;SDS011;11303;50.772;19.670;2022-09-09T13:53:47;2.28;;;1.80;;
22268;SDS011;11303;50.772;19.670;2022-09-09T13:55:49;1.70;;;1.60;;
22268;SDS011;11303;50.772;19.670;2022-09-09T13:57:54;4.03;;;2.03;;
22268;SDS011;11303;50.772;19.670;2022-09-09T14:00:00;5.13;;;2.00;;
22268;SDS011;11303;50.772;19.670;2022-09-09T14:02:06;4.10;;;1.80;;
22268;SDS011;11303;50.772;19.670;2022-09-09T14:04:08;3.55;;;1.85;;